createdAt,value
2019-06-07T00:00:45.405Z,99.90
2019-06-07T00:03:23.885Z,99.90
2019-06-07T00:05:43.999Z,99.90
2019-06-07T00:08:21.334Z,99.90
2019-06-07T00:10:42.884Z,99.90
2019-06-07T00:13:12.910Z,99.90
2019-06-07T00:15:41.462Z,99.90
2019-06-07T00:18:11.182Z,99.90
2019-06-07T00:20:40.104Z,99.90
2019-06-07T00:23:10.997Z,99.90
2019-06-07T00:25:38.770Z,99.90
2019-06-07T00:28:08.179Z,99.90
2019-06-07T00:30:50.658Z,99.90
2019-06-07T00:33:06.740Z,99.90
2019-06-07T00:35:35.196Z,99.90
2019-06-07T00:38:03.592Z,99.90
2019-06-07T00:40:32.427Z,99.90
2019-06-07T00:43:00.877Z,99.90
2019-06-07T00:45:29.388Z,99.90
2019-06-07T00:47:57.880Z,99.90
2019-06-07T00:50:26.413Z,99.90
2019-06-07T00:55:27.490Z,99.90
2019-06-07T00:57:55.331Z,99.90
2019-06-07T01:00:25.574Z,99.90
2019-06-07T01:02:54.219Z,99.90
2019-06-07T01:05:30.751Z,99.90
2019-06-07T01:07:52.800Z,99.90
2019-06-07T01:10:36.514Z,99.90
2019-06-07T01:12:51.477Z,99.90
2019-06-07T01:15:28.889Z,99.90
2019-06-07T01:18:33.492Z,99.90
2019-06-07T01:20:26.651Z,99.90
2019-06-07T01:22:54.679Z,99.90
2019-06-07T01:25:26.159Z,99.90
2019-06-07T01:27:53.343Z,99.90
2019-06-07T01:30:26.027Z,99.90
2019-06-07T01:32:52.859Z,99.90
2019-06-07T01:35:22.096Z,99.90
2019-06-07T01:37:51.593Z,99.90
2019-06-07T01:40:23.476Z,99.90
2019-06-07T01:42:50.445Z,99.90
2019-06-07T01:45:19.512Z,99.90
2019-06-07T01:47:48.479Z,99.90
2019-06-07T01:50:17.763Z,99.90
2019-06-07T01:52:47.206Z,99.90
2019-06-07T01:55:15.917Z,99.90
2019-06-07T01:57:48.420Z,99.90
2019-06-07T02:00:14.726Z,99.90
2019-06-07T02:02:43.212Z,99.90
2019-06-07T02:05:12.169Z,99.90
2019-06-07T02:07:40.585Z,99.90
2019-06-07T02:10:09.540Z,99.90
2019-06-07T02:12:43.238Z,99.90
2019-06-07T02:15:09.009Z,99.90
2019-06-07T02:17:38.068Z,99.90
2019-06-07T02:20:07.639Z,99.90
2019-06-07T02:22:36.044Z,99.90
2019-06-07T02:25:35.065Z,99.90
2019-06-07T02:27:37.293Z,99.90
2019-06-07T02:30:37.127Z,99.90
2019-06-07T02:32:38.317Z,99.90
2019-06-07T02:35:06.999Z,99.90
2019-06-07T02:37:36.946Z,99.90
2019-06-07T02:40:08.348Z,99.90
2019-06-07T02:42:41.913Z,99.90
2019-06-07T02:45:10.351Z,99.90
2019-06-07T02:47:38.924Z,99.90
2019-06-07T02:50:10.287Z,99.90
2019-06-07T02:52:40.673Z,99.90
2019-06-07T02:55:10.156Z,99.90
2019-06-07T02:57:41.628Z,99.90
2019-06-07T03:00:40.378Z,99.90
2019-06-07T03:02:41.881Z,99.90
2019-06-07T03:05:10.900Z,99.90
2019-06-07T03:07:44.886Z,99.90
2019-06-07T03:10:11.041Z,99.90
2019-06-07T03:12:43.033Z,99.90
2019-06-07T03:15:30.087Z,99.90
2019-06-07T03:17:45.074Z,99.90
2019-06-07T03:20:15.697Z,99.90
2019-06-07T03:22:44.099Z,99.90
2019-06-07T03:25:13.077Z,99.90
2019-06-07T03:27:53.760Z,99.90
2019-06-07T03:30:38.920Z,99.90
2019-06-07T03:32:52.472Z,99.90
2019-06-07T03:35:20.888Z,99.90
2019-06-07T03:37:49.376Z,99.90
2019-06-07T03:40:17.811Z,99.90
2019-06-07T03:42:46.231Z,99.90
2019-06-07T03:45:14.686Z,99.90
2019-06-07T03:47:43.408Z,99.90
2019-06-07T03:50:11.978Z,99.90
2019-06-07T03:52:41.636Z,99.90
2019-06-07T03:55:10.514Z,99.90
2019-06-07T03:58:29.094Z,99.90
2019-06-07T04:00:09.749Z,99.90
2019-06-07T04:02:41.758Z,99.90
2019-06-07T04:05:08.435Z,99.90
2019-06-07T04:07:43.355Z,99.90
2019-06-07T04:10:07.266Z,99.90
2019-06-07T04:12:39.973Z,99.90
2019-06-07T04:15:06.375Z,99.90
2019-06-07T04:17:37.169Z,99.90
2019-06-07T04:20:08.984Z,99.90
2019-06-07T04:22:42.039Z,99.90
2019-06-07T04:25:10.815Z,99.90
2019-06-07T04:27:40.992Z,99.90
2019-06-07T04:30:11.931Z,99.90
2019-06-07T04:32:44.746Z,99.90
2019-06-07T04:35:10.819Z,99.90
2019-06-07T04:37:41.560Z,99.90
2019-06-07T04:40:10.353Z,99.90
2019-06-07T04:42:44.801Z,99.90
2019-06-07T04:45:32.553Z,99.90
2019-06-07T04:47:42.864Z,99.90
2019-06-07T04:50:12.076Z,99.90
2019-06-07T04:52:44.419Z,99.90
2019-06-07T04:55:10.808Z,99.90
2019-06-07T04:57:40.372Z,99.90
2019-06-07T05:00:46.308Z,99.90
2019-06-07T05:02:42.415Z,99.90
2019-06-07T05:05:09.959Z,99.90
2019-06-07T05:07:40.784Z,99.90
2019-06-07T05:10:08.646Z,99.90
2019-06-07T05:12:41.706Z,99.90
2019-06-07T05:15:07.552Z,99.90
2019-06-07T05:17:37.056Z,99.90
2019-06-07T05:20:06.975Z,99.90
2019-06-07T05:22:42.074Z,99.90
2019-06-07T05:25:06.062Z,99.90
2019-06-07T05:27:36.419Z,99.90
2019-06-07T05:30:13.616Z,99.90
2019-06-07T05:32:41.974Z,99.90
2019-06-07T05:35:09.479Z,99.90
2019-06-07T05:37:40.877Z,99.90
2019-06-07T05:40:09.142Z,99.90
2019-06-07T05:42:42.685Z,99.90
2019-06-07T05:45:08.263Z,99.90
2019-06-07T05:47:40.892Z,99.90
2019-06-07T05:50:38.050Z,99.90
2019-06-07T05:52:41.713Z,99.90
2019-06-07T05:55:07.705Z,99.90
2019-06-07T05:57:40.338Z,99.90
2019-06-07T06:00:07.910Z,99.90
2019-06-07T06:02:58.595Z,99.90
2019-06-07T06:05:07.228Z,99.90
2019-06-07T06:07:38.864Z,99.90
2019-06-07T06:10:08.013Z,99.90
2019-06-07T06:12:40.831Z,99.90
2019-06-07T06:15:07.557Z,99.90
2019-06-07T06:17:37.778Z,99.90
2019-06-07T06:20:06.970Z,99.90
2019-06-07T06:22:37.438Z,99.90
2019-06-07T06:30:10.353Z,99.90
2019-06-07T06:32:46.454Z,99.90
2019-06-07T06:35:09.721Z,99.90
2019-06-07T06:37:41.768Z,99.90
2019-06-07T06:40:08.974Z,99.90
2019-06-07T06:42:37.403Z,99.90
2019-06-07T06:45:09.978Z,99.90
2019-06-07T06:47:38.452Z,99.90
2019-06-07T06:50:09.218Z,99.90
2019-06-07T06:52:39.926Z,99.90
2019-06-07T06:55:09.767Z,99.90
2019-06-07T06:57:41.455Z,99.90
2019-06-07T07:00:10.553Z,99.90
2019-06-07T07:03:27.055Z,99.90
2019-06-07T07:05:10.712Z,99.90
2019-06-07T07:07:40.304Z,99.90
2019-06-07T07:10:09.663Z,99.60
2019-06-07T07:12:38.070Z,99.20
2019-06-07T07:15:16.866Z,98.70
2019-06-07T07:17:53.742Z,98.50
2019-06-07T07:20:15.590Z,97.90
2019-06-07T07:22:46.436Z,97.60
2019-06-07T07:25:14.420Z,97.50
2019-06-07T07:27:44.469Z,97.50
2019-06-07T07:30:36.066Z,97.30
2019-06-07T07:32:46.711Z,96.90
2019-06-07T07:35:15.204Z,97.10
2019-06-07T07:37:45.624Z,96.60
2019-06-07T07:40:55.379Z,96.10
2019-06-07T07:42:45.208Z,95.80
2019-06-07T07:45:14.374Z,95.60
2019-06-07T07:47:58.322Z,95.60
2019-06-07T07:50:12.923Z,96.00
2019-06-07T07:52:41.375Z,95.80
2019-06-07T07:55:09.878Z,95.70
2019-06-07T07:57:38.434Z,95.50
2019-06-07T08:00:48.892Z,95.40
2019-06-07T08:02:38.517Z,95.20
2019-06-07T08:05:25.230Z,95.10
2019-06-07T08:07:38.323Z,95.20
2019-06-07T08:10:07.889Z,94.80
2019-06-07T08:12:55.502Z,95.00
2019-06-07T08:15:07.216Z,94.50
2019-06-07T08:17:35.803Z,94.50
2019-06-07T08:20:06.351Z,94.30
2019-06-07T08:22:34.769Z,94.40
2019-06-07T08:25:04.480Z,94.00
2019-06-07T08:27:33.100Z,93.40
2019-06-07T08:30:26.027Z,93.50
2019-06-07T08:32:31.644Z,93.00
2019-06-07T08:35:05.800Z,92.70
2019-06-07T08:38:14.133Z,93.00
2019-06-07T08:40:01.968Z,92.70
2019-06-07T08:42:37.330Z,92.40
2019-06-07T08:45:03.749Z,92.50
2019-06-07T08:47:31.029Z,92.50
2019-06-07T08:50:07.072Z,92.10
2019-06-07T08:52:29.720Z,91.80
2019-06-07T08:55:03.390Z,92.10
2019-06-07T08:57:28.340Z,92.00
2019-06-07T09:00:06.003Z,91.60
2019-06-07T09:02:26.890Z,91.60
2019-06-07T09:04:58.615Z,90.90
2019-06-07T09:07:25.466Z,90.90
2019-06-07T09:10:00.113Z,90.90
2019-06-07T09:12:23.999Z,90.30
2019-06-07T09:15:09.015Z,90.30
2019-06-07T09:17:22.549Z,90.00
2019-06-07T09:19:50.984Z,90.00
2019-06-07T09:22:19.412Z,90.10
2019-06-07T09:24:47.803Z,89.30
2019-06-07T09:27:16.238Z,89.70
2019-06-07T09:29:44.845Z,90.00
2019-06-07T09:32:18.096Z,89.30
2019-06-07T09:34:43.438Z,89.00
2019-06-07T09:38:02.733Z,88.60
2019-06-07T09:40:15.521Z,88.20
2019-06-07T09:42:33.059Z,88.90
2019-06-07T09:45:05.679Z,87.20
2019-06-07T09:47:33.041Z,87.90
2019-06-07T09:50:08.350Z,87.80
2019-06-07T09:52:31.870Z,87.20
2019-06-07T09:55:12.463Z,87.50
2019-06-07T09:57:31.077Z,87.10
2019-06-07T10:00:01.836Z,86.40
2019-06-07T10:02:29.644Z,86.50
2019-06-07T10:04:59.904Z,86.00
2019-06-07T10:07:31.675Z,84.50
2019-06-07T10:10:12.557Z,84.20
2019-06-07T10:12:28.511Z,82.80
2019-06-07T10:14:56.916Z,84.70
2019-06-07T10:17:25.409Z,84.50
2019-06-07T10:19:53.827Z,84.70
2019-06-07T10:22:22.254Z,81.80
2019-06-07T10:24:50.657Z,83.50
2019-06-07T10:27:19.105Z,81.50
2019-06-07T10:29:47.508Z,80.90
2019-06-07T10:32:16.044Z,81.40
2019-06-07T10:34:44.474Z,80.80
2019-06-07T10:37:15.690Z,80.70
2019-06-07T10:40:02.894Z,81.70
2019-06-07T10:42:31.532Z,80.70
2019-06-07T10:45:02.099Z,79.60
2019-06-07T10:47:30.187Z,79.00
2019-06-07T10:49:58.604Z,78.90
2019-06-07T10:52:27.459Z,78.30
2019-06-07T10:54:55.943Z,77.60
2019-06-07T10:57:24.363Z,78.70
2019-06-07T10:59:52.774Z,78.20
2019-06-07T11:02:21.210Z,77.50
2019-06-07T11:04:49.948Z,77.00
2019-06-07T11:07:18.375Z,77.20
2019-06-07T11:09:46.794Z,76.10
2019-06-07T11:12:15.481Z,75.20
2019-06-07T11:14:43.931Z,76.70
2019-06-07T11:17:13.424Z,75.50
2019-06-07T11:19:43.281Z,75.50
2019-06-07T11:22:12.332Z,76.00
2019-06-07T11:24:40.892Z,74.60
2019-06-07T11:27:11.138Z,75.00
2019-06-07T11:29:39.480Z,75.20
2019-06-07T11:32:08.385Z,75.40
2019-06-07T11:34:36.948Z,73.70
2019-06-07T11:37:07.208Z,73.90
2019-06-07T11:39:35.562Z,74.00
2019-06-07T11:42:04.042Z,74.30
2019-06-07T11:44:32.486Z,72.70
2019-06-07T11:47:00.963Z,72.30
2019-06-07T11:49:29.427Z,72.10
2019-06-07T11:51:57.870Z,72.50
2019-06-07T11:54:26.292Z,72.10
2019-06-07T11:56:54.710Z,71.80
2019-06-07T11:59:23.231Z,71.40
2019-06-07T12:01:51.715Z,72.80
2019-06-07T12:04:32.362Z,70.50
2019-06-07T12:06:50.620Z,69.80
2019-06-07T12:09:19.045Z,69.70
2019-06-07T12:11:47.848Z,69.70
2019-06-07T12:14:16.839Z,69.40
2019-06-07T12:16:45.408Z,68.80
2019-06-07T12:19:13.851Z,68.30
2019-06-07T12:21:42.286Z,69.00
2019-06-07T12:24:12.091Z,68.90
2019-06-07T12:26:40.709Z,69.30
2019-06-07T12:29:09.103Z,67.80
2019-06-07T12:31:37.537Z,67.10
2019-06-07T12:34:05.965Z,67.20
2019-06-07T12:36:34.601Z,67.10
2019-06-07T12:39:03.177Z,66.50
2019-06-07T12:41:31.583Z,65.20
2019-06-07T12:44:00.000Z,65.90
2019-06-07T12:46:28.749Z,65.00
2019-06-07T12:48:57.210Z,66.60
2019-06-07T12:51:25.636Z,64.70
2019-06-07T12:53:54.075Z,63.60
2019-06-07T12:56:24.108Z,63.10
2019-06-07T12:58:52.846Z,62.90
2019-06-07T13:01:22.856Z,62.90
2019-06-07T13:03:51.492Z,61.50
2019-06-07T13:06:19.901Z,60.90
2019-06-07T13:08:48.345Z,60.40
2019-06-07T13:11:22.289Z,60.40
2019-06-07T13:13:46.937Z,62.30
2019-06-07T13:16:16.443Z,59.90
2019-06-07T13:18:45.420Z,59.10
2019-06-07T13:21:13.828Z,57.80
2019-06-07T13:23:44.338Z,57.90
2019-06-07T13:26:12.372Z,58.10
2019-06-07T13:28:40.790Z,56.80
2019-06-07T13:31:09.205Z,57.80
2019-06-07T13:33:38.920Z,57.20
2019-06-07T13:36:07.643Z,56.40
2019-06-07T13:38:36.113Z,55.70
2019-06-07T13:41:04.598Z,55.40
2019-06-07T13:43:33.023Z,56.10
2019-06-07T13:46:01.453Z,56.00
2019-06-07T13:48:29.853Z,54.90
2019-06-07T13:50:58.629Z,54.80
2019-06-07T13:53:27.128Z,54.20
2019-06-07T13:55:55.543Z,53.50
2019-06-07T13:58:24.285Z,53.60
2019-06-07T14:00:52.840Z,54.10
2019-06-07T14:03:24.235Z,52.10
2019-06-07T14:05:51.424Z,52.60
2019-06-07T14:08:20.984Z,52.40
2019-06-07T14:10:49.674Z,51.60
2019-06-07T14:13:21.566Z,51.20
2019-06-07T14:15:50.057Z,51.30
2019-06-07T14:18:18.494Z,51.60
2019-06-07T14:20:46.927Z,51.50
2019-06-07T14:23:15.333Z,51.80
2019-06-07T14:25:43.841Z,51.90
2019-06-07T14:28:12.276Z,52.30
2019-06-07T14:30:40.756Z,51.40
2019-06-07T14:33:09.185Z,51.20
2019-06-07T14:35:37.781Z,51.30
2019-06-07T14:38:06.283Z,51.10
2019-06-07T14:40:34.682Z,51.50
2019-06-07T14:43:03.082Z,50.10
2019-06-07T14:45:32.734Z,50.50
2019-06-07T14:48:01.724Z,49.80
2019-06-07T14:50:30.304Z,50.10
2019-06-07T14:52:58.769Z,50.00
2019-06-07T14:55:27.188Z,50.30
2019-06-07T14:57:55.600Z,49.40
2019-06-07T15:00:28.296Z,47.90
2019-06-07T15:02:56.787Z,49.10
2019-06-07T15:05:31.183Z,49.10
2019-06-07T15:08:00.117Z,49.40
2019-06-07T15:10:28.712Z,49.40
2019-06-07T15:12:57.299Z,49.30
2019-06-07T15:15:26.409Z,48.70
2019-06-07T15:17:54.995Z,48.00
2019-06-07T15:20:23.484Z,47.80
2019-06-07T15:22:51.999Z,48.10
2019-06-07T15:25:20.497Z,48.20
2019-06-07T15:27:48.913Z,47.50
2019-06-07T15:30:17.562Z,48.20
2019-06-07T15:32:46.034Z,48.70
2019-06-07T15:35:15.304Z,48.00
2019-06-07T15:37:43.727Z,47.70
2019-06-07T15:40:13.477Z,48.00
2019-06-07T15:42:52.096Z,48.20
2019-06-07T15:45:14.073Z,48.10
2019-06-07T15:47:42.500Z,48.10
2019-06-07T15:50:11.944Z,47.80
2019-06-07T15:52:43.008Z,47.50
2019-06-07T15:55:11.570Z,47.70
2019-06-07T15:57:41.876Z,48.30
2019-06-07T16:00:12.884Z,47.90
2019-06-07T16:02:41.846Z,48.10
2019-06-07T16:05:10.798Z,48.00
2019-06-07T16:07:40.503Z,48.20
2019-06-07T16:10:09.803Z,48.20
2019-06-07T16:12:38.774Z,47.20
2019-06-07T16:15:08.242Z,46.90
2019-06-07T16:17:37.240Z,46.70
2019-06-07T16:20:07.485Z,46.30
2019-06-07T16:22:35.974Z,46.10
2019-06-07T16:25:06.324Z,46.40
2019-06-07T16:27:36.564Z,46.30
2019-06-07T16:30:09.999Z,46.10
2019-06-07T16:32:39.340Z,45.80
2019-06-07T16:35:09.106Z,45.60
2019-06-07T16:37:38.288Z,45.50
2019-06-07T16:40:11.445Z,46.00
2019-06-07T16:42:40.618Z,46.30
2019-06-07T16:45:11.111Z,46.70
2019-06-07T16:47:42.399Z,47.00
2019-06-07T16:50:12.024Z,47.70
2019-06-07T16:52:41.906Z,48.00
2019-06-07T16:55:11.243Z,49.00
2019-06-07T16:57:40.924Z,50.10
2019-06-07T17:00:10.890Z,50.80
2019-06-07T17:02:40.216Z,52.60
2019-06-07T17:05:09.317Z,55.20
2019-06-07T17:07:38.302Z,57.30
2019-06-07T17:10:08.986Z,58.90
2019-06-07T17:12:38.537Z,61.20
2019-06-07T17:15:08.195Z,62.10
2019-06-07T17:17:36.840Z,63.50
2019-06-07T17:20:07.256Z,64.50
2019-06-07T17:22:35.694Z,65.00
2019-06-07T17:25:09.159Z,62.40
2019-06-07T17:27:37.663Z,59.10
2019-06-07T17:30:11.163Z,58.60
2019-06-07T17:32:50.597Z,57.90
2019-06-07T17:35:10.216Z,57.50
2019-06-07T17:37:38.628Z,57.50
2019-06-07T17:40:09.106Z,57.70
2019-06-07T17:42:37.571Z,57.80
2019-06-07T17:45:09.315Z,59.20
2019-06-07T17:47:37.828Z,59.80
2019-06-07T17:50:08.663Z,59.80
2019-06-07T17:52:37.324Z,61.10
2019-06-07T17:55:09.900Z,62.50
2019-06-07T17:57:38.330Z,62.90
2019-06-07T18:00:28.285Z,62.60
2019-06-07T18:02:42.761Z,63.00
2019-06-07T18:05:14.656Z,63.90
2019-06-07T18:07:45.903Z,64.40
2019-06-07T18:10:17.372Z,64.40
2019-06-07T18:12:46.097Z,65.20
2019-06-07T18:15:15.024Z,65.70
2019-06-07T18:17:44.593Z,66.40
2019-06-07T18:20:13.651Z,67.40
2019-06-07T18:22:42.101Z,66.90
2019-06-07T18:25:10.759Z,67.10
2019-06-07T18:27:39.184Z,66.70
2019-06-07T18:30:11.640Z,66.60
2019-06-07T18:32:38.517Z,66.80
2019-06-07T18:35:07.269Z,66.50
2019-06-07T18:37:35.701Z,65.90
2019-06-07T18:40:07.157Z,65.70
2019-06-07T18:42:35.639Z,65.30
2019-06-07T18:45:08.235Z,64.80
2019-06-07T18:47:36.836Z,64.90
2019-06-07T18:50:09.087Z,65.10
2019-06-07T18:52:39.313Z,66.00
2019-06-07T18:55:09.641Z,65.10
2019-06-07T18:57:38.214Z,64.00
2019-06-07T19:00:14.741Z,63.80
2019-06-07T19:02:43.227Z,64.10
2019-06-07T19:05:12.404Z,64.20
2019-06-07T19:07:40.955Z,64.20
2019-06-07T19:10:11.500Z,63.80
2019-06-07T19:12:40.005Z,63.50
2019-06-07T19:15:10.439Z,63.40
2019-06-07T19:17:39.025Z,63.60
2019-06-07T19:20:08.482Z,63.60
2019-06-07T19:22:36.916Z,63.70
2019-06-07T19:25:06.884Z,63.90
2019-06-07T19:27:35.290Z,64.00
2019-06-07T19:30:05.027Z,64.30
2019-06-07T19:32:33.449Z,64.20
2019-06-07T19:35:01.966Z,64.10
2019-06-07T19:37:30.445Z,63.80
2019-06-07T19:39:59.866Z,63.90
2019-06-07T19:42:28.536Z,63.60
2019-06-07T19:45:09.848Z,63.60
2019-06-07T19:47:27.384Z,63.60
2019-06-07T19:49:56.694Z,63.90
2019-06-07T19:52:25.232Z,63.90
2019-06-07T19:54:53.831Z,63.80
2019-06-07T19:57:22.820Z,63.90
2019-06-07T19:59:51.339Z,63.70
2019-06-07T20:02:19.751Z,63.80
2019-06-07T20:04:48.161Z,63.80
2019-06-07T20:07:16.559Z,64.10
2019-06-07T20:09:45.009Z,64.00
2019-06-07T20:12:13.689Z,64.10
2019-06-07T20:14:42.116Z,64.20
2019-06-07T20:17:10.533Z,64.10
2019-06-07T20:19:39.040Z,64.30
2019-06-07T20:22:07.454Z,64.30
2019-06-07T20:24:38.061Z,64.60
2019-06-07T20:27:06.066Z,65.00
2019-06-07T20:29:34.562Z,64.80
2019-06-07T20:32:02.974Z,64.90
2019-06-07T20:34:31.396Z,64.60
2019-06-07T20:37:00.241Z,64.00
2019-06-07T20:39:28.768Z,64.10
2019-06-07T20:41:57.237Z,64.10
2019-06-07T20:44:25.827Z,64.20
2019-06-07T20:46:54.307Z,64.30
2019-06-07T20:49:22.720Z,64.50
2019-06-07T20:51:51.426Z,64.30
2019-06-07T20:54:19.996Z,64.30
2019-06-07T20:56:48.420Z,64.40
2019-06-07T20:59:16.831Z,64.60
2019-06-07T21:01:45.233Z,64.90
2019-06-07T21:04:13.693Z,65.20
2019-06-07T21:06:42.174Z,66.00
2019-06-07T21:09:10.596Z,65.20
2019-06-07T21:11:39.029Z,65.90
2019-06-07T21:14:08.238Z,65.30
2019-06-07T21:16:36.791Z,65.60
2019-06-07T21:19:06.302Z,65.70
2019-06-07T21:21:34.773Z,66.20
2019-06-07T21:24:03.228Z,66.50
2019-06-07T21:26:31.803Z,66.70
2019-06-07T21:29:01.281Z,66.50
2019-06-07T21:31:29.956Z,66.80
2019-06-07T21:33:58.385Z,66.90
2019-06-07T21:36:26.847Z,66.80
2019-06-07T21:38:55.345Z,67.10
2019-06-07T21:41:23.761Z,67.50
2019-06-07T21:43:52.301Z,69.30
2019-06-07T21:46:22.164Z,72.30
2019-06-07T21:48:50.606Z,73.80
2019-06-07T21:51:19.060Z,73.00
2019-06-07T21:53:47.584Z,74.00
2019-06-07T21:56:15.995Z,74.70
2019-06-07T21:58:44.432Z,76.80
2019-06-07T22:01:16.122Z,77.90
2019-06-07T22:03:44.534Z,76.60
2019-06-07T22:06:13.811Z,78.90
2019-06-07T22:08:42.431Z,79.60
2019-06-07T22:11:12.209Z,81.80
2019-06-07T22:13:40.911Z,82.40
2019-06-07T22:16:23.405Z,81.50
2019-06-07T22:18:39.498Z,81.70
2019-06-07T22:21:08.571Z,82.90
2019-06-07T22:23:37.191Z,83.20
2019-06-07T22:26:06.986Z,84.40
2019-06-07T22:28:35.601Z,85.40
2019-06-07T22:31:23.365Z,86.70
2019-06-07T22:33:51.778Z,90.10
2019-06-07T22:36:20.179Z,90.40
2019-06-07T22:38:48.603Z,90.10
2019-06-07T22:41:17.630Z,90.10
2019-06-07T22:43:46.145Z,90.80
2019-06-07T22:46:15.027Z,92.50
2019-06-07T22:48:43.681Z,92.50
2019-06-07T22:51:13.207Z,93.30
2019-06-07T22:53:42.488Z,93.60
2019-06-07T22:56:13.871Z,93.50
2019-06-07T22:58:42.420Z,93.90
2019-06-07T23:01:10.854Z,93.10
2019-06-07T23:03:39.341Z,92.80
2019-06-07T23:06:08.497Z,93.70
2019-06-07T23:08:37.058Z,94.60
2019-06-07T23:11:05.504Z,95.20
2019-06-07T23:13:33.982Z,95.50
2019-06-07T23:16:02.666Z,96.00
2019-06-07T23:18:31.127Z,96.60
2019-06-07T23:20:59.653Z,96.30
2019-06-07T23:23:28.069Z,96.20
2019-06-07T23:25:56.472Z,96.40
2019-06-07T23:28:24.931Z,96.80
2019-06-07T23:30:53.444Z,96.80
2019-06-07T23:33:21.826Z,97.40
2019-06-07T23:35:50.230Z,97.50
2019-06-07T23:38:19.173Z,97.30
2019-06-07T23:40:47.646Z,96.80
2019-06-07T23:43:17.469Z,96.60
2019-06-07T23:45:45.990Z,96.50
2019-06-07T23:48:15.379Z,96.20
2019-06-07T23:50:44.007Z,96.30
2019-06-07T23:53:13.593Z,96.30
2019-06-07T23:55:42.159Z,96.30
2019-06-07T23:58:11.832Z,95.90
